Terminal Aerodrome Forecast
Issued by NWS

Home | Current Version | Previous Version | Text Only | Print | Product List | Glossary On
Versions: 1 2 3 4 5 6 7 8 9 10 11 12 13 14 15 16
289
FTUS44 KJAN 181352 AAA
TAFHKS
TAF AMD
KHKS 181352Z 1814/1912 00000KT 1SM -DZ BR OVC002
     FM181600 VRB03KT 4SM BR BKN007
     FM182000 VRB04KT P6SM OVC020
     FM190100 00000KT 4SM BR OVC006
     FM190700 00000KT 2SM BR OVC003=

USA.gov is the U.S. government's official web portal to all federal, state and local government web resources and services.